RYR22SM LEXJ-EIDW
Flight info
| Callsign | RYR22SM |
|---|---|
| Flight time | N/A |
| Altitude | 31000 |
| Route | VADOX N864 DELOG/N0440F380 DCT TURDO DCT TULTA/M077F380 DCT TUVEN/N0448F390 DCT SUTEX SUTEX3R |
| Aircraft | B38M/M-SDE1FGHILORVWXY/HB1 |
Departure
| Time | 2026-04-20 18:16 |
|---|---|
| Airport | Seve Ballesteros-Santander Airport (LEXJ) |
Arrival
| Time | N/A |
|---|---|
| Airport | Dublin Airport (EIDW) |
| Time | Latitude | Longitude | Altitude | Speed | Heading |
|---|---|---|---|---|---|
| 2026-04-20 17:52 | 43.42397 | -3.82361 | 26 ft | 0 kts | 257° |
| 2026-04-20 18:05 | 43.42403 | -3.82337 | 25 ft | 4 kts | 241° |
| 2026-04-20 18:06 | 43.42418 | -3.82317 | 25 ft | 4 kts | 183° |
| 2026-04-20 18:06 | 43.42438 | -3.82329 | 26 ft | 4 kts | 129° |
| 2026-04-20 18:06 | 43.42448 | -3.82359 | 24 ft | 4 kts | 82° |
| 2026-04-20 18:06 | 43.42445 | -3.82371 | 23 ft | 1 kts | 24° |
| 2026-04-20 18:09 | 43.42446 | -3.82370 | 26 ft | 1 kts | 24° |
| 2026-04-20 18:09 | 43.42467 | -3.82358 | 24 ft | 8 kts | 21° |
| 2026-04-20 18:09 | 43.42523 | -3.82331 | 25 ft | 17 kts | 19° |
| 2026-04-20 18:09 | 43.42599 | -3.82235 | 23 ft | 16 kts | 103° |
| 2026-04-20 18:10 | 43.42558 | -3.82082 | 26 ft | 18 kts | 110° |
| 2026-04-20 18:10 | 43.42513 | -3.81908 | 24 ft | 20 kts | 110° |
| 2026-04-20 18:10 | 43.42463 | -3.81718 | 23 ft | 20 kts | 109° |
| 2026-04-20 18:10 | 43.42415 | -3.81531 | 25 ft | 22 kts | 110° |
| 2026-04-20 18:11 | 43.42385 | -3.81365 | 23 ft | 14 kts | 67° |
| 2026-04-20 18:11 | 43.42416 | -3.81334 | 26 ft | 0 kts | 22° |
| 2026-04-20 18:13 | 43.42432 | -3.81325 | 25 ft | 7 kts | 22° |
| 2026-04-20 18:13 | 43.42498 | -3.81261 | 25 ft | 15 kts | 74° |
| 2026-04-20 18:13 | 43.42467 | -3.81108 | 25 ft | 18 kts | 111° |
| 2026-04-20 18:13 | 43.42420 | -3.80931 | 24 ft | 21 kts | 110° |
| 2026-04-20 18:14 | 43.42367 | -3.80739 | 24 ft | 18 kts | 125° |
| 2026-04-20 18:14 | 43.42328 | -3.80632 | 22 ft | 8 kts | 41° |
| 2026-04-20 18:14 | 43.42344 | -3.80633 | 23 ft | 1 kts | 302° |
| 2026-04-20 18:14 | 43.42351 | -3.80679 | 22 ft | 0 kts | 290° |
| 2026-04-20 18:15 | 43.42352 | -3.80681 | 22 ft | 1 kts | 290° |
| 2026-04-20 18:15 | 43.42396 | -3.80849 | 25 ft | 53 kts | 290° |
| 2026-04-20 18:15 | 43.42613 | -3.81662 | 26 ft | 126 kts | 291° |
| 2026-04-20 18:15 | 43.42989 | -3.83051 | 157 ft | 175 kts | 292° |
| 2026-04-20 18:16 | 43.43433 | -3.84644 | 628 ft | 189 kts | 292° |
| 2026-04-20 18:16 | 43.43937 | -3.86372 | 1222 ft | 194 kts | 293° |
| 2026-04-20 18:16 | 43.44453 | -3.88081 | 1998 ft | 198 kts | 292° |
| 2026-04-20 18:16 | 43.45118 | -3.89834 | 2535 ft | 219 kts | 310° |
| 2026-04-20 18:17 | 43.46454 | -3.91080 | 2819 ft | 246 kts | 347° |
| 2026-04-20 18:17 | 43.48138 | -3.91188 | 3733 ft | 248 kts | 4° |
| 2026-04-20 18:17 | 43.49924 | -3.91095 | 4345 ft | 265 kts | 1° |
| 2026-04-20 18:17 | 43.51802 | -3.91112 | 5120 ft | 272 kts | 358° |
| 2026-04-20 18:18 | 43.53709 | -3.91198 | 6010 ft | 277 kts | 356° |
| 2026-04-20 18:18 | 43.55645 | -3.91329 | 6868 ft | 280 kts | 355° |
| 2026-04-20 18:18 | 43.57606 | -3.91485 | 7707 ft | 284 kts | 355° |
| 2026-04-20 18:18 | 43.59592 | -3.91656 | 8543 ft | 288 kts | 354° |
| 2026-04-20 18:19 | 43.61608 | -3.91841 | 9378 ft | 292 kts | 353° |
| 2026-04-20 18:19 | 43.63626 | -3.92030 | 10153 ft | 298 kts | 353° |
| 2026-04-20 18:19 | 43.65748 | -3.92231 | 10603 ft | 316 kts | 353° |
| 2026-04-20 18:19 | 43.68010 | -3.92447 | 10980 ft | 334 kts | 353° |
| 2026-04-20 18:20 | 43.70374 | -3.92672 | 11529 ft | 345 kts | 353° |
| 2026-04-20 18:20 | 43.72774 | -3.92903 | 12396 ft | 347 kts | 353° |
| 2026-04-20 18:20 | 43.75194 | -3.93136 | 13242 ft | 350 kts | 353° |
| 2026-04-20 18:20 | 43.77637 | -3.93371 | 14067 ft | 353 kts | 353° |
| 2026-04-20 18:21 | 43.80103 | -3.93609 | 14822 ft | 358 kts | 353° |
| 2026-04-20 18:21 | 43.82604 | -3.93851 | 15582 ft | 362 kts | 353° |
| 2026-04-20 18:21 | 43.85101 | -3.94092 | 16322 ft | 367 kts | 353° |
| 2026-04-20 18:21 | 43.87663 | -3.94340 | 17050 ft | 371 kts | 353° |
| 2026-04-20 18:22 | 43.90258 | -3.94591 | 17780 ft | 376 kts | 353° |
| 2026-04-20 18:22 | 43.92880 | -3.94846 | 18458 ft | 380 kts | 353° |
| 2026-04-20 18:22 | 43.95532 | -3.95103 | 19088 ft | 383 kts | 353° |
| 2026-04-20 18:22 | 43.98202 | -3.95362 | 19725 ft | 387 kts | 353° |
| 2026-04-20 18:23 | 44.00895 | -3.95624 | 20356 ft | 390 kts | 353° |
| 2026-04-20 18:23 | 44.03609 | -3.95887 | 20975 ft | 393 kts | 353° |
| 2026-04-20 18:23 | 44.06350 | -3.96154 | 21590 ft | 396 kts | 353° |
| 2026-04-20 18:23 | 44.09073 | -3.96419 | 22185 ft | 399 kts | 353° |
| 2026-04-20 18:24 | 44.11859 | -3.96691 | 22780 ft | 403 kts | 353° |
| 2026-04-20 18:24 | 44.14658 | -3.96964 | 23361 ft | 406 kts | 353° |
| 2026-04-20 18:24 | 44.17486 | -3.97241 | 23879 ft | 409 kts | 353° |
| 2026-04-20 18:24 | 44.20335 | -3.97520 | 24360 ft | 412 kts | 353° |
| 2026-04-20 18:25 | 44.23203 | -3.97800 | 24840 ft | 415 kts | 353° |
| 2026-04-20 18:25 | 44.26091 | -3.98083 | 25315 ft | 417 kts | 353° |
| 2026-04-20 18:25 | 44.28998 | -3.98369 | 25786 ft | 420 kts | 353° |
| 2026-04-20 18:25 | 44.31888 | -3.98894 | 26219 ft | 419 kts | 341° |
| 2026-04-20 18:26 | 44.34509 | -4.00458 | 26656 ft | 415 kts | 326° |
| 2026-04-20 18:26 | 44.36987 | -4.02556 | 27059 ft | 418 kts | 326° |
| 2026-04-20 18:26 | 44.39468 | -4.04700 | 27500 ft | 420 kts | 325° |
| 2026-04-20 18:26 | 44.41950 | -4.06883 | 27947 ft | 423 kts | 324° |
| 2026-04-20 18:27 | 44.44430 | -4.09086 | 28365 ft | 425 kts | 324° |
| 2026-04-20 18:27 | 44.46930 | -4.11322 | 28783 ft | 428 kts | 324° |
| 2026-04-20 18:27 | 44.49444 | -4.13580 | 29195 ft | 430 kts | 324° |
| 2026-04-20 18:27 | 44.51968 | -4.15851 | 29606 ft | 433 kts | 324° |
| 2026-04-20 18:28 | 44.54508 | -4.18138 | 29994 ft | 435 kts | 324° |
| 2026-04-20 18:28 | 44.57061 | -4.20439 | 30342 ft | 438 kts | 324° |
| 2026-04-20 18:28 | 44.59591 | -4.22723 | 30669 ft | 440 kts | 324° |
| 2026-04-20 18:28 | 44.62173 | -4.25055 | 30932 ft | 442 kts | 324° |
| 2026-04-20 18:29 | 44.67320 | -4.29712 | 30967 ft | 439 kts | 324° |
| 2026-04-20 18:29 | 44.72445 | -4.34359 | 30972 ft | 439 kts | 324° |
| 2026-04-20 18:30 | 44.77572 | -4.39018 | 30977 ft | 439 kts | 324° |
| 2026-04-20 18:30 | 44.82661 | -4.43652 | 30979 ft | 439 kts | 324° |
| 2026-04-20 18:31 | 44.87785 | -4.48329 | 30980 ft | 439 kts | 324° |
| 2026-04-20 18:31 | 44.92911 | -4.53017 | 30979 ft | 439 kts | 324° |
| 2026-04-20 18:32 | 44.98032 | -4.57711 | 30979 ft | 439 kts | 323° |
| 2026-04-20 18:32 | 45.03113 | -4.62377 | 30981 ft | 439 kts | 323° |
| 2026-04-20 18:33 | 45.08228 | -4.67086 | 30984 ft | 439 kts | 323° |
| 2026-04-20 18:33 | 45.13342 | -4.71804 | 30989 ft | 439 kts | 323° |
| 2026-04-20 18:34 | 45.18447 | -4.76523 | 30986 ft | 438 kts | 323° |
| 2026-04-20 18:34 | 45.23516 | -4.81219 | 30991 ft | 438 kts | 323° |
| 2026-04-20 18:35 | 45.28608 | -4.85948 | 30994 ft | 437 kts | 323° |
| 2026-04-20 18:35 | 45.33699 | -4.90684 | 30991 ft | 437 kts | 323° |
| 2026-04-20 18:36 | 45.38781 | -4.95425 | 30994 ft | 437 kts | 323° |
| 2026-04-20 18:36 | 45.43863 | -5.00175 | 30996 ft | 437 kts | 323° |
| 2026-04-20 18:37 | 45.48903 | -5.04896 | 30997 ft | 437 kts | 323° |
| 2026-04-20 18:37 | 45.53979 | -5.09660 | 31001 ft | 437 kts | 323° |
| 2026-04-20 18:38 | 45.59049 | -5.14429 | 31002 ft | 436 kts | 323° |
| 2026-04-20 18:38 | 45.64106 | -5.19198 | 31003 ft | 436 kts | 323° |
| 2026-04-20 18:39 | 45.69164 | -5.23977 | 31008 ft | 436 kts | 323° |
| 2026-04-20 18:39 | 45.74223 | -5.28769 | 31002 ft | 436 kts | 323° |
| 2026-04-20 18:40 | 45.79250 | -5.33539 | 31009 ft | 436 kts | 323° |
| 2026-04-20 18:40 | 45.84300 | -5.38343 | 31014 ft | 435 kts | 323° |
| 2026-04-20 18:41 | 45.89344 | -5.43151 | 31014 ft | 435 kts | 323° |
| 2026-04-20 18:41 | 45.94386 | -5.47968 | 31015 ft | 435 kts | 323° |
| 2026-04-20 18:42 | 45.99413 | -5.52782 | 31016 ft | 435 kts | 323° |
| 2026-04-20 18:42 | 46.04447 | -5.57613 | 31017 ft | 435 kts | 322° |
| 2026-04-20 18:43 | 46.09443 | -5.62419 | 31021 ft | 435 kts | 322° |
| 2026-04-20 18:43 | 46.14473 | -5.67266 | 31016 ft | 435 kts | 322° |
| 2026-04-20 18:44 | 46.19494 | -5.72117 | 31018 ft | 435 kts | 322° |
| 2026-04-20 18:44 | 46.24518 | -5.76983 | 31028 ft | 434 kts | 322° |
| 2026-04-20 18:45 | 46.29500 | -5.81817 | 31025 ft | 434 kts | 322° |
| 2026-04-20 18:45 | 46.34515 | -5.86695 | 31029 ft | 434 kts | 322° |
| 2026-04-20 18:46 | 46.39524 | -5.91577 | 31029 ft | 434 kts | 322° |
| 2026-04-20 18:46 | 46.44535 | -5.96473 | 31032 ft | 434 kts | 322° |
| 2026-04-20 18:47 | 46.49547 | -6.01381 | 31032 ft | 435 kts | 322° |
| 2026-04-20 18:47 | 46.54522 | -6.06263 | 31035 ft | 435 kts | 322° |
| 2026-04-20 18:48 | 46.59529 | -6.11188 | 31037 ft | 435 kts | 321° |
| 2026-04-20 18:48 | 46.64538 | -6.16127 | 31038 ft | 435 kts | 321° |
| 2026-04-20 18:49 | 46.69544 | -6.21073 | 31038 ft | 435 kts | 321° |
| 2026-04-20 18:49 | 46.74547 | -6.26027 | 31038 ft | 435 kts | 321° |
| 2026-04-20 18:50 | 46.79549 | -6.30993 | 31041 ft | 435 kts | 321° |
| 2026-04-20 18:50 | 46.84553 | -6.35971 | 31040 ft | 435 kts | 321° |
| 2026-04-20 18:51 | 46.89515 | -6.40919 | 31044 ft | 434 kts | 321° |
| 2026-04-20 18:51 | 46.94501 | -6.45902 | 31045 ft | 434 kts | 321° |
| 2026-04-20 18:52 | 46.99487 | -6.50897 | 31045 ft | 434 kts | 321° |
| 2026-04-20 18:52 | 47.04465 | -6.55895 | 31051 ft | 434 kts | 321° |
| 2026-04-20 18:53 | 47.09440 | -6.60902 | 31047 ft | 433 kts | 321° |
| 2026-04-20 18:53 | 47.14374 | -6.65879 | 31049 ft | 433 kts | 321° |
| 2026-04-20 18:54 | 47.19340 | -6.70897 | 31049 ft | 433 kts | 321° |
| 2026-04-20 18:54 | 47.24302 | -6.75922 | 31053 ft | 433 kts | 321° |
| 2026-04-20 18:55 | 47.29260 | -6.80955 | 31052 ft | 433 kts | 321° |
| 2026-04-20 18:55 | 47.34210 | -6.85992 | 31055 ft | 433 kts | 321° |
| 2026-04-20 18:56 | 47.39162 | -6.91041 | 31053 ft | 433 kts | 321° |
| 2026-04-20 18:56 | 47.44078 | -6.96060 | 31060 ft | 433 kts | 322° |